Time;durP1;ratioP1;P1;durP2;ratioP2;P2;SDS_P1;SDS_P2;PMS_P1;PMS_P2;Temp;Humidity;BMP_temperature;BMP_pressure;BME280_temperature;BME280_humidity;BME280_pressure;Samples;Min_cycle;Max_cycle;Signal;HPM_P1;HPM_P2
2024/01/29 00:00:04;;;;;;;;;;;;;;;;;;5071139;28;19919;-80
2024/01/29 00:02:32;;;;;;;;;;;;;;;;;;5070382;28;19917;-81
2024/01/29 00:04:57;;;;;;;;;;;;;;;;;;5066980;28;20023;-81
2024/01/29 00:07:23;;;;;;;;;;;;;;;;;;5069079;28;20054;-81
2024/01/29 00:09:49;;;;;;;;;;;;;;;;;;5067079;28;19916;-81
2024/01/29 00:12:15;;;;;;;;;;;;;;;;;;5064841;28;19916;-81
2024/01/29 00:14:41;;;;;;;;;;;;;;;;;;5070265;28;19920;-80
2024/01/29 00:17:07;;;;;;;;;;;;;;;;;;5070563;28;19991;-80
2024/01/29 00:19:33;;;;;;;;;;;;;;;;;;5068847;28;19956;-81
2024/01/29 00:21:59;;;;;;;;;;;;;;;;;;5069379;28;20451;-81
2024/01/29 00:24:25;;;;;;;;;;;;;;;;;;5070732;28;20072;-80
2024/01/29 00:26:50;;;;;;;;;;;;;;;;;;5068035;28;19912;-81
2024/01/29 00:29:16;;;;;;;;;;;;;;;;;;5070539;28;20024;-80
2024/01/29 00:31:42;;;;;;;;;;;;;;;;;;5069618;28;19912;-81
2024/01/29 00:34:09;;;;;;;;;;;;;;;;;;5070286;28;19952;-81
2024/01/29 00:36:35;;;;;;;;;;;;;;;;;;5070240;28;19927;-81
2024/01/29 00:39:06;;;;;;;;;;;;;;;;;;5070595;28;20327;-80
2024/01/29 00:41:32;;;;;;;;;;;;;;;;;;5068037;28;19916;-80
2024/01/29 00:43:58;;;;;;;;;;;;;;;;;;5069199;28;20436;-81
2024/01/29 00:46:24;;;;;;;;;;;;;;;;;;5069079;28;19912;-81
2024/01/29 00:48:50;;;;;;;;;;;;;;;;;;5067314;28;19912;-80
2024/01/29 00:51:16;;;;;;;;;;;;;;;;;;5069233;28;20283;-81
2024/01/29 00:53:42;;;;;;;;;;;;;;;;;;5063656;28;19920;-81
2024/01/29 00:56:08;;;;;;;;;;;;;;;;;;5070133;28;20727;-80
2024/01/29 00:58:33;;;;;;;;;;;;;;;;;;5069999;28;19916;-80
2024/01/29 01:00:59;;;;;;;;;;;;;;;;;;5069428;28;19956;-81
2024/01/29 01:03:25;;;;;;;;;;;;;;;;;;5070136;28;19923;-80
2024/01/29 01:05:51;;;;;;;;;;;;;;;;;;5068473;28;20416;-80
2024/01/29 01:08:17;;;;;;;;;;;;;;;;;;5070070;28;20304;-81
2024/01/29 01:10:43;;;;;;;;;;;;;;;;;;5067648;28;20350;-81
2024/01/29 01:13:09;;;;;;;;;;;;;;;;;;5062607;28;19927;-80
2024/01/29 01:15:34;;;;;;;;;;;;;;;;;;5069267;28;19991;-80
2024/01/29 01:18:00;;;;;;;;;;;;;;;;;;5068733;28;20094;-80
2024/01/29 01:20:26;;;;;;;;;;;;;;;;;;5069879;28;20011;-81
2024/01/29 01:22:52;;;;;;;;;;;;;;;;;;5069577;28;19935;-80
2024/01/29 01:25:18;;;;;;;;;;;;;;;;;;5068894;28;19959;-80
2024/01/29 01:27:44;;;;;;;;;;;;;;;;;;5068651;28;19916;-80
2024/01/29 01:30:10;;;;;;;;;;;;;;;;;;5069364;28;19919;-80
2024/01/29 01:32:35;;;;;;;;;;;;;;;;;;5069116;28;19929;-81
2024/01/29 01:35:02;;;;;;;;;;;;;;;;;;5059131;28;20440;-80
2024/01/29 01:37:28;;;;;;;;;;;;;;;;;;5068907;28;19920;-81
2024/01/29 01:39:54;;;;;;;;;;;;;;;;;;5069076;28;20271;-80
2024/01/29 01:42:20;;;;;;;;;;;;;;;;;;5069510;28;20099;-80
2024/01/29 01:44:46;;;;;;;;;;;;;;;;;;5068934;28;19916;-80
2024/01/29 01:47:11;;;;;;;;;;;;;;;;;;5069242;28;19916;-80
2024/01/29 01:49:37;;;;;;;;;;;;;;;;;;5068094;28;20161;-81
2024/01/29 01:52:03;;;;;;;;;;;;;;;;;;5063776;28;19912;-80
2024/01/29 01:54:29;;;;;;;;;;;;;;;;;;5068580;28;19928;-80
2024/01/29 01:56:55;;;;;;;;;;;;;;;;;;5068393;28;19957;-80
2024/01/29 01:59:21;;;;;;;;;;;;;;;;;;5068101;28;20438;-80
2024/01/29 02:01:46;;;;;;;;;;;;;;;;;;5068338;28;20013;-80
2024/01/29 02:04:12;;;;;;;;;;;;;;;;;;5068986;28;19919;-79
2024/01/29 02:06:38;;;;;;;;;;;;;;;;;;5068413;28;20003;-80
2024/01/29 02:09:05;;;;;;;;;;;;;;;;;;5065865;28;20011;-80
2024/01/29 02:11:31;;;;;;;;;;;;;;;;;;5063162;28;19912;-79
2024/01/29 02:13:57;;;;;;;;;;;;;;;;;;5063549;28;19923;-79
2024/01/29 02:16:23;;;;;;;;;;;;;;;;;;5068383;28;20291;-80
2024/01/29 02:18:49;;;;;;;;;;;;;;;;;;5065043;28;19940;-80
2024/01/29 02:21:14;;;;;;;;;;;;;;;;;;5068620;28;20028;-80
2024/01/29 02:23:40;;;;;;;;;;;;;;;;;;5067298;28;19916;-80
2024/01/29 02:26:06;;;;;;;;;;;;;;;;;;5060330;28;19999;-81
2024/01/29 02:28:32;;;;;;;;;;;;;;;;;;5068630;28;19913;-80
2024/01/29 02:30:58;;;;;;;;;;;;;;;;;;5068281;28;19916;-81
2024/01/29 02:33:24;;;;;;;;;;;;;;;;;;5068806;28;20324;-80
2024/01/29 02:35:50;;;;;;;;;;;;;;;;;;5067907;28;19912;-81
2024/01/29 02:38:16;;;;;;;;;;;;;;;;;;5068245;28;19962;-81
2024/01/29 02:40:41;;;;;;;;;;;;;;;;;;5067763;28;19916;-81
2024/01/29 02:43:07;;;;;;;;;;;;;;;;;;5066201;28;19948;-81
2024/01/29 02:45:33;;;;;;;;;;;;;;;;;;5067597;28;19923;-81
2024/01/29 02:47:59;;;;;;;;;;;;;;;;;;5068382;28;19916;-81
2024/01/29 02:50:26;;;;;;;;;;;;;;;;;;5068272;28;20004;-81
2024/01/29 02:52:51;;;;;;;;;;;;;;;;;;5068799;28;20383;-81
2024/01/29 02:55:17;;;;;;;;;;;;;;;;;;5060701;28;19920;-80
2024/01/29 02:57:43;;;;;;;;;;;;;;;;;;5067808;28;19913;-80
2024/01/29 03:00:10;;;;;;;;;;;;;;;;;;5064872;28;20436;-80
2024/01/29 03:02:36;;;;;;;;;;;;;;;;;;5060880;28;19920;-81
2024/01/29 03:05:02;;;;;;;;;;;;;;;;;;5065152;28;19942;-80
2024/01/29 03:07:27;;;;;;;;;;;;;;;;;;5065600;28;19916;-81
2024/01/29 03:09:53;;;;;;;;;;;;;;;;;;5067085;28;20005;-81
2024/01/29 03:12:19;;;;;;;;;;;;;;;;;;5058319;28;19958;-81
2024/01/29 03:14:45;;;;;;;;;;;;;;;;;;5067474;28;19912;-81
2024/01/29 03:17:11;;;;;;;;;;;;;;;;;;5066426;28;20389;-80
2024/01/29 03:19:37;;;;;;;;;;;;;;;;;;5068174;28;19919;-80
2024/01/29 03:22:03;;;;;;;;;;;;;;;;;;5067060;28;19960;-81
2024/01/29 03:24:29;;;;;;;;;;;;;;;;;;5071105;28;19920;-81
2024/01/29 03:26:55;;;;;;;;;;;;;;;;;;5070286;28;19943;-80
2024/01/29 03:29:20;;;;;;;;;;;;;;;;;;5071032;28;19924;-80
2024/01/29 03:31:46;;;;;;;;;;;;;;;;;;5068498;28;19913;-80
2024/01/29 03:34:12;;;;;;;;;;;;;;;;;;5069516;28;20007;-80
2024/01/29 03:36:38;;;;;;;;;;;;;;;;;;5069316;28;19928;-81
2024/01/29 03:39:04;;;;;;;;;;;;;;;;;;5063344;28;19913;-80
2024/01/29 03:41:30;;;;;;;;;;;;;;;;;;5069405;28;19923;-81
2024/01/29 03:43:55;;;;;;;;;;;;;;;;;;5067372;28;19933;-81
2024/01/29 03:46:21;;;;;;;;;;;;;;;;;;5071028;28;19912;-81
2024/01/29 03:48:47;;;;;;;;;;;;;;;;;;5070934;28;20011;-81
2024/01/29 03:51:13;;;;;;;;;;;;;;;;;;5070285;28;19958;-81
2024/01/29 03:53:39;;;;;;;;;;;;;;;;;;5070452;28;19931;-80
2024/01/29 03:56:05;;;;;;;;;;;;;;;;;;5070726;28;19913;-80
2024/01/29 03:58:30;;;;;;;;;;;;;;;;;;5069241;28;19928;-80
2024/01/29 04:00:56;;;;;;;;;;;;;;;;;;5070535;28;20017;-80
2024/01/29 04:03:22;;;;;;;;;;;;;;;;;;5069862;28;19913;-79
2024/01/29 04:05:48;;;;;;;;;;;;;;;;;;5069516;28;19960;-80
2024/01/29 04:08:14;;;;;;;;;;;;;;;;;;5060451;28;19923;-80
2024/01/29 04:10:40;;;;;;;;;;;;;;;;;;5068598;28;19912;-81
2024/01/29 04:13:05;;;;;;;;;;;;;;;;;;5071306;28;19967;-81
2024/01/29 04:15:31;;;;;;;;;;;;;;;;;;5070617;28;19912;-80
2024/01/29 04:17:57;;;;;;;;;;;;;;;;;;5071261;28;19912;-80
2024/01/29 04:20:23;;;;;;;;;;;;;;;;;;5070560;28;19916;-79
2024/01/29 04:22:49;;;;;;;;;;;;;;;;;;5070852;28;20003;-81
2024/01/29 04:25:15;;;;;;;;;;;;;;;;;;5070127;28;19917;-81
2024/01/29 04:27:41;;;;;;;;;;;;;;;;;;5070923;28;19912;-80
2024/01/29 04:30:07;;;;;;;;;;;;;;;;;;5070941;28;19967;-80
2024/01/29 04:32:32;;;;;;;;;;;;;;;;;;5070688;28;19952;-80
2024/01/29 04:34:58;;;;;;;;;;;;;;;;;;5068372;28;19955;-81
2024/01/29 04:37:24;;;;;;;;;;;;;;;;;;5066912;28;19924;-81
2024/01/29 04:39:50;;;;;;;;;;;;;;;;;;5070451;28;19966;-81
2024/01/29 04:42:17;;;;;;;;;;;;;;;;;;5066547;28;19912;-81
2024/01/29 04:44:43;;;;;;;;;;;;;;;;;;5069851;28;19922;-80
2024/01/29 04:47:09;;;;;;;;;;;;;;;;;;5069935;28;19912;-81
2024/01/29 04:49:35;;;;;;;;;;;;;;;;;;5066194;28;19935;-80
2024/01/29 04:52:01;;;;;;;;;;;;;;;;;;5068252;28;19920;-81
2024/01/29 04:54:27;;;;;;;;;;;;;;;;;;5069977;28;19928;-80
2024/01/29 04:56:52;;;;;;;;;;;;;;;;;;5070033;28;19935;-80
2024/01/29 04:59:18;;;;;;;;;;;;;;;;;;5068870;28;19916;-80
2024/01/29 05:01:44;;;;;;;;;;;;;;;;;;5070348;28;19990;-80
2024/01/29 05:04:10;;;;;;;;;;;;;;;;;;5065826;28;19912;-81
2024/01/29 05:06:36;;;;;;;;;;;;;;;;;;5068856;28;19919;-80
2024/01/29 05:09:02;;;;;;;;;;;;;;;;;;5069320;28;19923;-81
2024/01/29 05:11:28;;;;;;;;;;;;;;;;;;5069035;28;19981;-80
2024/01/29 05:13:54;;;;;;;;;;;;;;;;;;5069469;28;19916;-80
2024/01/29 05:16:19;;;;;;;;;;;;;;;;;;5066755;28;19988;-80
2024/01/29 05:18:47;;;;;;;;;;;;;;;;;;5069590;28;19912;-80
2024/01/29 05:21:13;;;;;;;;;;;;;;;;;;5069459;28;20632;-81
2024/01/29 05:23:39;;;;;;;;;;;;;;;;;;5067655;28;19917;-81
2024/01/29 05:26:05;;;;;;;;;;;;;;;;;;5069803;28;19912;-80
2024/01/29 05:28:31;;;;;;;;;;;;;;;;;;5069158;28;19917;-81
2024/01/29 05:30:57;;;;;;;;;;;;;;;;;;5069526;28;19919;-82
2024/01/29 05:33:23;;;;;;;;;;;;;;;;;;5063747;28;19967;-84
2024/01/29 05:35:48;;;;;;;;;;;;;;;;;;5069143;28;19924;-83
2024/01/29 05:38:14;;;;;;;;;;;;;;;;;;5069046;28;20441;-82
2024/01/29 05:40:40;;;;;;;;;;;;;;;;;;5068781;28;19921;-84
2024/01/29 05:43:06;;;;;;;;;;;;;;;;;;5068468;28;20012;-83
2024/01/29 05:45:32;;;;;;;;;;;;;;;;;;5066674;28;19916;-81
2024/01/29 05:47:57;;;;;;;;;;;;;;;;;;5068992;28;19916;-82
2024/01/29 05:50:23;;;;;;;;;;;;;;;;;;5057363;28;19908;-81
2024/01/29 05:52:52;;;;;;;;;;;;;;;;;;5068646;28;19973;-82
2024/01/29 05:55:18;;;;;;;;;;;;;;;;;;5068530;28;19948;-81
2024/01/29 05:57:44;;;;;;;;;;;;;;;;;;5066955;28;20017;-81
2024/01/29 06:00:10;;;;;;;;;;;;;;;;;;5067590;28;19913;-81
2024/01/29 06:02:42;;;;;;;;;;;;;;;;;;5067912;28;19912;-81
2024/01/29 06:05:08;;;;;;;;;;;;;;;;;;5068868;28;19920;-84
2024/01/29 06:07:34;;;;;;;;;;;;;;;;;;5066490;28;20486;-83
2024/01/29 06:10:00;;;;;;;;;;;;;;;;;;5066498;28;20332;-83
2024/01/29 06:12:25;;;;;;;;;;;;;;;;;;5069232;28;20306;-88
2024/01/29 06:14:51;;;;;;;;;;;;;;;;;;5075217;28;19955;-87
2024/01/29 06:17:17;;;;;;;;;;;;;;;;;;5073203;28;19932;-86
2024/01/29 06:19:43;;;;;;;;;;;;;;;;;;5073800;28;19970;-86
2024/01/29 06:22:09;;;;;;;;;;;;;;;;;;5077442;28;19912;-86
2024/01/29 06:24:35;;;;;;;;;;;;;;;;;;5065302;28;19912;-85
2024/01/29 06:27:01;;;;;;;;;;;;;;;;;;5079592;28;19913;-85
2024/01/29 06:29:27;;;;;;;;;;;;;;;;;;5076323;28;19919;-86
2024/01/29 06:31:53;;;;;;;;;;;;;;;;;;5082837;28;19912;-85
2024/01/29 06:34:19;;;;;;;;;;;;;;;;;;5082877;28;19919;-84
2024/01/29 06:36:44;;;;;;;;;;;;;;;;;;5082325;28;19908;-85
2024/01/29 06:39:11;;;;;;;;;;;;;;;;;;5085881;28;19915;-86
2024/01/29 06:41:37;;;;;;;;;;;;;;;;;;5036900;28;19913;-85
2024/01/29 06:44:03;;;;;;;;;;;;;;;;;;5035889;28;19975;-86
2024/01/29 06:46:28;;;;;;;;;;;;;;;;;;5040217;28;19942;-86
2024/01/29 06:48:54;;;;;;;;;;;;;;;;;;5040320;28;19920;-87
2024/01/29 06:51:21;;;;;;;;;;;;;;;;;;5044312;28;19893;-86
2024/01/29 06:53:47;;;;;;;;;;;;;;;;;;5037446;28;19988;-85
2024/01/29 06:56:13;;;;;;;;;;;;;;;;;;5034943;28;19909;-85
2024/01/29 06:58:38;;;;;;;;;;;;;;;;;;5043915;28;19913;-85
2024/01/29 07:01:05;;;;;;;;;;;;;;;;;;5047210;28;19909;-85
2024/01/29 07:03:31;;;;;;;;;;;;;;;;;;5049344;28;20608;-86
2024/01/29 07:05:57;;;;;;;;;;;;;;;;;;5046071;28;19913;-86
2024/01/29 07:08:23;;;;;;;;;;;;;;;;;;5044760;28;19969;-86
2024/01/29 07:10:48;;;;;;;;;;;;;;;;;;5040187;28;19914;-87
2024/01/29 07:13:14;;;;;;;;;;;;;;;;;;5060076;28;19979;-86
2024/01/29 07:15:40;;;;;;;;;;;;;;;;;;5073182;28;20310;-86
2024/01/29 07:18:06;;;;;;;;;;;;;;;;;;5078557;28;19948;-85
2024/01/29 07:20:38;;;;;;;;;;;;;;;;;;5078705;28;19916;-86
2024/01/29 07:23:04;;;;;;;;;;;;;;;;;;5079583;28;19908;-86
2024/01/29 07:25:31;;;;;;;;;;;;;;;;;;5077546;28;19934;-86
2024/01/29 07:27:59;;;;;;;;;;;;;;;;;;5079417;28;19982;-86
2024/01/29 07:30:25;;;;;;;;;;;;;;;;;;5079435;28;19920;-86
2024/01/29 07:32:51;;;;;;;;;;;;;;;;;;5079014;28;19913;-86
2024/01/29 07:35:17;;;;;;;;;;;;;;;;;;5077203;28;19912;-86
2024/01/29 07:37:43;;;;;;;;;;;;;;;;;;5077369;28;20371;-83
2024/01/29 07:40:08;;;;;;;;;;;;;;;;;;5072715;28;19912;-83
2024/01/29 07:42:34;;;;;;;;;;;;;;;;;;5074099;28;19915;-83
2024/01/29 07:45:01;;;;;;;;;;;;;;;;;;5073203;28;19965;-83
2024/01/29 07:47:27;;;;;;;;;;;;;;;;;;5075103;28;19909;-84
2024/01/29 07:49:53;;;;;;;;;;;;;;;;;;5068861;28;19935;-83
2024/01/29 07:52:19;;;;;;;;;;;;;;;;;;5074303;28;20003;-83
2024/01/29 07:54:44;;;;;;;;;;;;;;;;;;5072764;28;19991;-83
2024/01/29 07:57:10;;;;;;;;;;;;;;;;;;5077180;28;19916;-84
2024/01/29 07:59:36;;;;;;;;;;;;;;;;;;5071616;28;19908;-84
2024/01/29 08:02:02;;;;;;;;;;;;;;;;;;5072009;28;19909;-84
2024/01/29 08:04:28;;;;;;;;;;;;;;;;;;5068651;28;19920;-84
2024/01/29 08:06:54;;;;;;;;;;;;;;;;;;5069797;28;19922;-84
2024/01/29 08:09:20;;;;;;;;;;;;;;;;;;5059327;28;19908;-84
2024/01/29 08:11:46;;;;;;;;;;;;;;;;;;5063612;28;20317;-84
2024/01/29 08:14:12;;;;;;;;;;;;;;;;;;5068474;28;19915;-83
2024/01/29 08:16:38;;;;;;;;;;;;;;;;;;5071421;28;19913;-84
2024/01/29 08:19:04;;;;;;;;;;;;;;;;;;5071809;28;19947;-83
2024/01/29 08:21:30;;;;;;;;;;;;;;;;;;5068861;28;19920;-84
2024/01/29 08:23:56;;;;;;;;;;;;;;;;;;5067701;28;20394;-84
2024/01/29 08:26:22;;;;;;;;;;;;;;;;;;5071557;28;19909;-84
2024/01/29 08:28:48;;;;;;;;;;;;;;;;;;5071536;28;19999;-84
2024/01/29 08:31:13;;;;;;;;;;;;;;;;;;5071503;28;19912;-84
2024/01/29 08:33:39;;;;;;;;;;;;;;;;;;5071592;28;19909;-84
2024/01/29 08:36:05;;;;;;;;;;;;;;;;;;5070191;28;20346;-84
2024/01/29 08:38:31;;;;;;;;;;;;;;;;;;5068286;28;20382;-84
2024/01/29 08:40:57;;;;;;;;;;;;;;;;;;5061187;28;20406;-84
2024/01/29 08:43:23;;;;;;;;;;;;;;;;;;5070889;28;19952;-84
2024/01/29 08:45:49;;;;;;;;;;;;;;;;;;5071901;28;20290;-85
2024/01/29 08:48:15;;;;;;;;;;;;;;;;;;5071158;28;19908;-84
2024/01/29 08:50:41;;;;;;;;;;;;;;;;;;5071745;28;19915;-84
2024/01/29 08:53:07;;;;;;;;;;;;;;;;;;5071173;28;19990;-84
2024/01/29 08:55:33;;;;;;;;;;;;;;;;;;5067807;28;19963;-84
2024/01/29 08:57:59;;;;;;;;;;;;;;;;;;5068260;28;19999;-85
2024/01/29 09:00:25;;;;;;;;;;;;;;;;;;5071385;28;20441;-84
2024/01/29 09:02:50;;;;;;;;;;;;;;;;;;5071887;28;19970;-85
2024/01/29 09:05:16;;;;;;;;;;;;;;;;;;5070540;28;20371;-85
2024/01/29 09:07:42;;;;;;;;;;;;;;;;;;5070158;28;20385;-85
2024/01/29 09:10:08;;;;;;;;;;;;;;;;;;5072199;28;19912;-85
2024/01/29 09:12:34;;;;;;;;;;;;;;;;;;5061388;28;20011;-85
2024/01/29 09:15:04;;;;;;;;;;;;;;;;;;5071703;28;19912;-85
2024/01/29 09:17:29;;;;;;;;;;;;;;;;;;5071425;28;20433;-84
2024/01/29 09:19:55;;;;;;;;;;;;;;;;;;5070977;28;19908;-84
2024/01/29 09:22:21;;;;;;;;;;;;;;;;;;5077480;28;19915;-84
2024/01/29 09:24:47;;;;;;;;;;;;;;;;;;5071787;28;19965;-85
2024/01/29 09:27:13;;;;;;;;;;;;;;;;;;5072258;28;19913;-84
2024/01/29 09:29:39;;;;;;;;;;;;;;;;;;5066002;28;19909;-84
2024/01/29 09:32:05;;;;;;;;;;;;;;;;;;5069664;28;19999;-85
2024/01/29 09:34:31;;;;;;;;;;;;;;;;;;5072216;28;19955;-84
2024/01/29 09:36:56;;;;;;;;;;;;;;;;;;5067387;28;19920;-85
2024/01/29 09:39:22;;;;;;;;;;;;;;;;;;5072065;28;19908;-85
2024/01/29 09:41:48;;;;;;;;;;;;;;;;;;5072689;28;20444;-85
2024/01/29 09:44:14;;;;;;;;;;;;;;;;;;5071921;28;19943;-84
2024/01/29 09:46:40;;;;;;;;;;;;;;;;;;5069873;28;20279;-85
2024/01/29 09:49:06;;;;;;;;;;;;;;;;;;5072184;28;19944;-84
2024/01/29 09:51:32;;;;;;;;;;;;;;;;;;5071622;28;19916;-84
2024/01/29 09:53:58;;;;;;;;;;;;;;;;;;5071974;28;19929;-85
2024/01/29 09:56:24;;;;;;;;;;;;;;;;;;5071472;28;20412;-84
2024/01/29 09:58:49;;;;;;;;;;;;;;;;;;5071387;28;19916;-85
2024/01/29 10:01:15;;;;;;;;;;;;;;;;;;5073136;28;19954;-84
2024/01/29 10:03:41;;;;;;;;;;;;;;;;;;5075509;28;19912;-84
2024/01/29 10:06:07;;;;;;;;;;;;;;;;;;5068760;28;19920;-83
2024/01/29 10:08:33;;;;;;;;;;;;;;;;;;5073340;28;19908;-84
2024/01/29 10:10:59;;;;;;;;;;;;;;;;;;5070247;28;19916;-83
2024/01/29 10:13:25;;;;;;;;;;;;;;;;;;5078110;28;19908;-83
2024/01/29 10:15:52;;;;;;;;;;;;;;;;;;5070574;28;19923;-84
2024/01/29 10:18:18;;;;;;;;;;;;;;;;;;5069048;28;19934;-84
2024/01/29 10:20:43;;;;;;;;;;;;;;;;;;5067181;28;19913;-85
2024/01/29 10:23:09;;;;;;;;;;;;;;;;;;5069506;28;19986;-84
2024/01/29 10:25:38;;;;;;;;;;;;;;;;;;5069029;28;19919;-85
2024/01/29 10:28:04;;;;;;;;;;;;;;;;;;5069215;28;19981;-85
2024/01/29 10:30:30;;;;;;;;;;;;;;;;;;5068852;28;20354;-84
2024/01/29 10:32:56;;;;;;;;;;;;;;;;;;5069041;28;19913;-84
2024/01/29 10:35:22;;;;;;;;;;;;;;;;;;5069514;28;20408;-85
2024/01/29 10:37:48;;;;;;;;;;;;;;;;;;5063915;28;19925;-83
2024/01/29 10:40:15;;;;;;;;;;;;;;;;;;5057396;28;19927;-83
2024/01/29 10:42:41;;;;;;;;;;;;;;;;;;5067383;28;19920;-85
2024/01/29 10:45:07;;;;;;;;;;;;;;;;;;5066820;28;20623;-84
2024/01/29 10:47:35;;;;;;;;;;;;;;;;;;5067573;28;20117;-84
2024/01/29 10:50:01;;;;;;;;;;;;;;;;;;5068364;28;19955;-84
2024/01/29 10:52:27;;;;;;;;;;;;;;;;;;5069324;28;19951;-84
2024/01/29 10:54:53;;;;;;;;;;;;;;;;;;5059153;28;19932;-84
2024/01/29 10:57:19;;;;;;;;;;;;;;;;;;5068961;28;19958;-83
2024/01/29 10:59:45;;;;;;;;;;;;;;;;;;5066677;28;19913;-82
2024/01/29 11:02:11;;;;;;;;;;;;;;;;;;5063067;28;19964;-82
2024/01/29 11:04:37;;;;;;;;;;;;;;;;;;5064298;28;19964;-82
2024/01/29 11:07:04;;;;;;;;;;;;;;;;;;5067656;28;20398;-82
2024/01/29 11:09:30;;;;;;;;;;;;;;;;;;5066637;28;20319;-83
2024/01/29 11:11:56;;;;;;;;;;;;;;;;;;5059780;28;19909;-82
2024/01/29 11:14:22;;;;;;;;;;;;;;;;;;5065151;28;19969;-83
2024/01/29 11:16:48;;;;;;;;;;;;;;;;;;5067770;28;19920;-83
2024/01/29 11:19:16;;;;;;;;;;;;;;;;;;5061934;28;19912;-83
2024/01/29 11:21:41;;;;;;;;;;;;;;;;;;5067447;28;20008;-83
2024/01/29 11:24:07;;;;;;;;;;;;;;;;;;5067715;28;20003;-83
2024/01/29 11:26:33;;;;;;;;;;;;;;;;;;5067697;28;19913;-83
2024/01/29 11:28:59;;;;;;;;;;;;;;;;;;5057128;28;19923;-83
2024/01/29 11:31:25;;;;;;;;;;;;;;;;;;5067289;28;19917;-83
2024/01/29 11:33:51;;;;;;;;;;;;;;;;;;5067450;28;19923;-83
2024/01/29 11:36:17;;;;;;;;;;;;;;;;;;5067125;28;19928;-84
2024/01/29 11:38:43;;;;;;;;;;;;;;;;;;5066818;28;19916;-82
2024/01/29 11:41:08;;;;;;;;;;;;;;;;;;5064433;28;19912;-83
2024/01/29 11:43:34;;;;;;;;;;;;;;;;;;5069184;28;19916;-84
2024/01/29 11:46:00;;;;;;;;;;;;;;;;;;5069582;28;19970;-84
2024/01/29 11:48:26;;;;;;;;;;;;;;;;;;5070235;28;19912;-84
2024/01/29 11:50:52;;;;;;;;;;;;;;;;;;5070339;28;19912;-84
2024/01/29 11:53:18;;;;;;;;;;;;;;;;;;5069470;28;20390;-84
2024/01/29 11:55:44;;;;;;;;;;;;;;;;;;5070031;28;19919;-84
2024/01/29 11:58:10;;;;;;;;;;;;;;;;;;5070822;28;19919;-82
2024/01/29 12:00:36;;;;;;;;;;;;;;;;;;5071072;28;19917;-83
2024/01/29 12:03:02;;;;;;;;;;;;;;;;;;5071420;28;19919;-82
2024/01/29 12:05:27;;;;;;;;;;;;;;;;;;5071331;28;20394;-83
2024/01/29 12:07:53;;;;;;;;;;;;;;;;;;5069657;28;19927;-83
2024/01/29 12:10:19;;;;;;;;;;;;;;;;;;5070726;28;20381;-89
2024/01/29 12:12:45;;;;;;;;;;;;;;;;;;5072817;28;19924;-83
2024/01/29 12:15:11;;;;;;;;;;;;;;;;;;5064289;28;20328;-82
2024/01/29 12:17:38;;;;;;;;;;;;;;;;;;5071414;28;19919;-83
2024/01/29 12:20:04;;;;;;;;;;;;;;;;;;5068154;28;19916;-81
2024/01/29 12:22:29;;;;;;;;;;;;;;;;;;5070092;28;20374;-81
2024/01/29 12:24:57;;;;;;;;;;;;;;;;;;5068740;28;20404;-81
2024/01/29 12:27:23;;;;;;;;;;;;;;;;;;5069952;28;20007;-81
2024/01/29 12:29:48;;;;;;;;;;;;;;;;;;5068821;28;19921;-80
2024/01/29 12:32:20;;;;;;;;;;;;;;;;;;5056446;28;19938;-81
2024/01/29 12:34:45;;;;;;;;;;;;;;;;;;5062773;28;19959;-81
2024/01/29 12:37:11;;;;;;;;;;;;;;;;;;5063311;28;19952;-81
2024/01/29 12:39:37;;;;;;;;;;;;;;;;;;5069016;28;19973;-81
2024/01/29 12:42:03;;;;;;;;;;;;;;;;;;5066285;28;19935;-81
2024/01/29 12:44:29;;;;;;;;;;;;;;;;;;5064931;28;19916;-81
2024/01/29 12:46:55;;;;;;;;;;;;;;;;;;5060695;28;19917;-82
2024/01/29 12:49:21;;;;;;;;;;;;;;;;;;5064212;28;19916;-81
2024/01/29 12:51:48;;;;;;;;;;;;;;;;;;5069985;28;19912;-81
2024/01/29 12:54:14;;;;;;;;;;;;;;;;;;5060203;28;20161;-80
2024/01/29 12:56:39;;;;;;;;;;;;;;;;;;5063683;28;20323;-80
2024/01/29 12:59:06;;;;;;;;;;;;;;;;;;5065470;28;19920;-81
2024/01/29 13:01:32;;;;;;;;;;;;;;;;;;5061053;28;20027;-79
2024/01/29 13:03:58;;;;;;;;;;;;;;;;;;5058873;28;20007;-81
2024/01/29 13:06:24;;;;;;;;;;;;;;;;;;5058548;28;20019;-80
2024/01/29 13:08:49;;;;;;;;;;;;;;;;;;5067721;28;19923;-80
2024/01/29 13:11:15;;;;;;;;;;;;;;;;;;5068957;28;19969;-81
2024/01/29 13:13:41;;;;;;;;;;;;;;;;;;5063536;28;20354;-81
2024/01/29 13:16:07;;;;;;;;;;;;;;;;;;5055149;28;20341;-81
2024/01/29 13:18:33;;;;;;;;;;;;;;;;;;5068064;28;19923;-81
2024/01/29 13:20:59;;;;;;;;;;;;;;;;;;5066516;28;19917;-81
2024/01/29 13:23:25;;;;;;;;;;;;;;;;;;5065163;28;19948;-81
2024/01/29 13:25:50;;;;;;;;;;;;;;;;;;5065087;28;20028;-81
2024/01/29 13:28:17;;;;;;;;;;;;;;;;;;5062397;28;20394;-81
2024/01/29 13:30:43;;;;;;;;;;;;;;;;;;5063100;28;20417;-81
2024/01/29 13:33:09;;;;;;;;;;;;;;;;;;5067992;28;19928;-81
2024/01/29 13:35:35;;;;;;;;;;;;;;;;;;5063225;28;19920;-81
2024/01/29 13:38:01;;;;;;;;;;;;;;;;;;5065207;28;19917;-81
2024/01/29 13:40:27;;;;;;;;;;;;;;;;;;5059138;28;19992;-81
2024/01/29 13:42:54;;;;;;;;;;;;;;;;;;5064236;28;20150;-81
2024/01/29 13:45:20;;;;;;;;;;;;;;;;;;5062262;28;19917;-81
2024/01/29 13:47:46;;;;;;;;;;;;;;;;;;5062770;28;20202;-81
2024/01/29 13:50:12;;;;;;;;;;;;;;;;;;5053012;28;20036;-82
2024/01/29 13:52:38;;;;;;;;;;;;;;;;;;5059245;28;19912;-81
2024/01/29 13:55:03;;;;;;;;;;;;;;;;;;5057648;28;19966;-81
2024/01/29 13:57:29;;;;;;;;;;;;;;;;;;5065004;28;20348;-81
2024/01/29 13:59:58;;;;;;;;;;;;;;;;;;5061468;28;19912;-81
2024/01/29 14:02:24;;;;;;;;;;;;;;;;;;5064681;28;19916;-80
2024/01/29 14:04:53;;;;;;;;;;;;;;;;;;5056519;28;20011;-81
2024/01/29 14:07:19;;;;;;;;;;;;;;;;;;5059208;28;19921;-80
2024/01/29 14:09:44;;;;;;;;;;;;;;;;;;5054183;28;19913;-80
2024/01/29 14:12:10;;;;;;;;;;;;;;;;;;5062081;28;19920;-80
2024/01/29 14:14:36;;;;;;;;;;;;;;;;;;5058256;28;19912;-80
2024/01/29 14:17:02;;;;;;;;;;;;;;;;;;5058268;28;20299;-81
2024/01/29 14:19:28;;;;;;;;;;;;;;;;;;5061956;28;20501;-81
2024/01/29 14:21:54;;;;;;;;;;;;;;;;;;5066521;28;19916;-81
2024/01/29 14:24:19;;;;;;;;;;;;;;;;;;5051922;28;19916;-81
2024/01/29 14:26:47;;;;;;;;;;;;;;;;;;5057579;28;21261;-80
2024/01/29 14:29:13;;;;;;;;;;;;;;;;;;5056446;28;20563;-81
2024/01/29 14:31:39;;;;;;;;;;;;;;;;;;5065275;28;20011;-80
2024/01/29 14:34:06;;;;;;;;;;;;;;;;;;5056744;28;19913;-80
2024/01/29 14:36:31;;;;;;;;;;;;;;;;;;5056373;28;19913;-80
2024/01/29 14:38:57;;;;;;;;;;;;;;;;;;5062450;28;19955;-80
2024/01/29 14:41:24;;;;;;;;;;;;;;;;;;5056908;28;19916;-79
2024/01/29 14:43:50;;;;;;;;;;;;;;;;;;5062029;28;19955;-80
2024/01/29 14:46:16;;;;;;;;;;;;;;;;;;5064778;28;19966;-81
2024/01/29 14:48:42;;;;;;;;;;;;;;;;;;5064719;28;19966;-83
2024/01/29 14:51:08;;;;;;;;;;;;;;;;;;5066897;28;20194;-84
2024/01/29 14:53:34;;;;;;;;;;;;;;;;;;5065651;28;19935;-79
2024/01/29 14:56:00;;;;;;;;;;;;;;;;;;5063011;28;19966;-80
2024/01/29 14:58:25;;;;;;;;;;;;;;;;;;5067141;28;20031;-82
2024/01/29 15:00:51;;;;;;;;;;;;;;;;;;5063708;28;20282;-79
2024/01/29 15:03:17;;;;;;;;;;;;;;;;;;5066778;28;19995;-85
2024/01/29 15:05:44;;;;;;;;;;;;;;;;;;5068495;28;20435;-85
2024/01/29 15:08:10;;;;;;;;;;;;;;;;;;5067459;28;20058;-86
2024/01/29 15:10:37;;;;;;;;;;;;;;;;;;5056388;28;19999;-81
2024/01/29 15:13:03;;;;;;;;;;;;;;;;;;5064007;28;19916;-81
2024/01/29 15:15:28;;;;;;;;;;;;;;;;;;5066930;28;20361;-82
2024/01/29 15:17:54;;;;;;;;;;;;;;;;;;5062528;28;19912;-80
2024/01/29 15:20:20;;;;;;;;;;;;;;;;;;5065508;28;19913;-84
2024/01/29 15:22:46;;;;;;;;;;;;;;;;;;5070653;28;19912;-84
2024/01/29 15:25:12;;;;;;;;;;;;;;;;;;5068535;28;19982;-84
2024/01/29 15:27:38;;;;;;;;;;;;;;;;;;5063374;28;19916;-85
2024/01/29 15:30:04;;;;;;;;;;;;;;;;;;5064450;28;19970;-84
2024/01/29 15:32:29;;;;;;;;;;;;;;;;;;5069169;28;19913;-81
2024/01/29 15:34:55;;;;;;;;;;;;;;;;;;5071151;28;19923;-81
2024/01/29 15:37:22;;;;;;;;;;;;;;;;;;5073631;28;20054;-82
2024/01/29 15:39:48;;;;;;;;;;;;;;;;;;5074164;28;19999;-81
2024/01/29 15:42:14;;;;;;;;;;;;;;;;;;5071099;28;19942;-81
2024/01/29 15:44:40;;;;;;;;;;;;;;;;;;5075290;28;20526;-84
2024/01/29 15:47:06;;;;;;;;;;;;;;;;;;5072217;28;19920;-82
2024/01/29 15:49:34;;;;;;;;;;;;;;;;;;5064827;28;19920;-83
2024/01/29 15:52:00;;;;;;;;;;;;;;;;;;5070063;28;19912;-83
2024/01/29 15:54:26;;;;;;;;;;;;;;;;;;5071378;28;20188;-83
2024/01/29 15:56:52;;;;;;;;;;;;;;;;;;5063786;28;19974;-83
2024/01/29 15:59:18;;;;;;;;;;;;;;;;;;5069031;28;20015;-83
2024/01/29 16:01:44;;;;;;;;;;;;;;;;;;5066415;28;19912;-82
2024/01/29 16:04:11;;;;;;;;;;;;;;;;;;5072727;28;19917;-81
2024/01/29 16:06:37;;;;;;;;;;;;;;;;;;5066278;28;19917;-83
2024/01/29 16:09:03;;;;;;;;;;;;;;;;;;5072031;28;19920;-82
2024/01/29 16:11:29;;;;;;;;;;;;;;;;;;5067722;28;19913;-82
2024/01/29 16:13:57;;;;;;;;;;;;;;;;;;5068913;28;19919;-82
2024/01/29 16:16:23;;;;;;;;;;;;;;;;;;5067162;28;20443;-82
2024/01/29 16:18:49;;;;;;;;;;;;;;;;;;5068540;28;20393;-82
2024/01/29 16:21:18;;;;;;;;;;;;;;;;;;5063859;28;19917;-82
2024/01/29 16:23:43;;;;;;;;;;;;;;;;;;5063738;28;19913;-81
2024/01/29 16:26:09;;;;;;;;;;;;;;;;;;5063687;28;19913;-82
2024/01/29 16:28:38;;;;;;;;;;;;;;;;;;5064735;28;19962;-82
2024/01/29 16:31:04;;;;;;;;;;;;;;;;;;5071318;28;19912;-82
2024/01/29 16:33:31;;;;;;;;;;;;;;;;;;5070431;28;19909;-82
2024/01/29 16:35:57;;;;;;;;;;;;;;;;;;5066840;28;19920;-81